Старый Оскол

СКИДКИ НА СМАРТФОНЫ!

Карта отелей и гостиниц, располагающихся рядом с аэропортом Старый Оскол :

Старый Оскол Белгородская область 51° 19' 45.3" N, 37° 46' 9.4188" E
Код аэродрома ИКАО
UUOS
Код аэродрома RU
УУОС
Координаты
N51.32925° E037.76928°
Превышение над уровнем моря
219
Основная полоса
04/22
Курс магнитный
040,4/220,4
Длина основной ВПП
1800
Ширина основной ВПП
42
Покрытие основной ВПП
Твёрдое (асфальтобетон)
Освещение ВПП
По запросу
Тип: 
Аэродром
Класс аэродрома: 
Принадлежность: 
ГА
Статус: 
Действующий
Сайт: 
http://www.airportoskol.ru/
E-mail аэродрома: 
stoskolaeroport@mail.ru
Страна: 
Россия
Регион: 
Белгородская область
Город: 
Дополнительная информация: 
Оператор: ОАО "Аэропорт Старый Оскол". Нкр.=(500)м, ОПРС: 384-"ОЛ", ВС до 65 тонн. 4 места стоянки ВС. Принимаемые типы ВС: АН-24, ЯК-42, SAAB-2000, Ан-12, Ан-74.

Скидки на навигаторы!

Найти трансфер

С помощью этой формы Вы можете найти трансфер из аэропорта Старый Оскол в город, аэропорт или вокзал:

Погода в аэропортах:

Авиационная погода в Павлодаре

Регион: 
Погода METAR: 
UASP 070500Z VRB01MPS 3100 BR BKN007 M27/M30 Q1041 TEMPO 0300 FZFG BKN002 RMK OBST OBSC QFE770/1027
Время наблюдения
2022-12-07T05:00:00Z
Температура C
-27.0
Точка росы
-30.0
Направление ветра
0
Скорость ветра (узлы)
2
Метео видимость
1.93
Облачность
BKN
Нижняя граница облачности (футы)
700
Явления погоды
BR
Условия полета
IFR
Аэропорт подробнее: 
BKN – значительная (рассеянная, разорванная) облачность;
BR – дымка (видимость от 1 до 9 км);

Авиационная погода в Гродно

Регион: 
Погода METAR: 
UMMG 070457Z 15005MPS 3100 -SN BR OVC003 M01/M02 Q1008 NOSIG RMK QBB110
Время наблюдения
2022-12-07T04:57:00Z
Температура C
-1.0
Точка росы
-2.0
Направление ветра
150
Скорость ветра (узлы)
10
Метео видимость
1.93
Облачность
OVC
Нижняя граница облачности (футы)
300
Явления погоды
-SN BR
Условия полета
LIFR
Аэропорт подробнее: 
OVC – сплошная облачность;
-SN – слабый снег; BR – дымка (видимость от 1 до 9 км);

Авиационная погода в Йоэнсуу

Регион: 
Погода METAR: 
EFJO 072050Z AUTO 10009KT 9999 -SN FEW009 BKN031 M05/M07 Q1006
Время наблюдения
2022-12-07T20:50:00Z
Температура C
-5.0
Точка росы
-7.0
Направление ветра
100
Скорость ветра (узлы)
9
Метео видимость
6.21
Облачность
FEW
BKN
Нижняя граница облачности (футы)
900
3100
Явления погоды
-SN
Условия полета
VFR
FEW – незначительная облачность; BKN – значительная (рассеянная, разорванная) облачность;
-SN – слабый снег;

Авиационная погода в Каяани

Регион: 
Погода METAR: 
EFKI 072050Z 10007KT 9999 -SN FEW008 BKN014 OVC029 M04/M05 Q1007
Время наблюдения
2022-12-07T20:50:00Z
Температура C
-4.0
Точка росы
-5.0
Направление ветра
100
Скорость ветра (узлы)
7
Метео видимость
6.21
Облачность
FEW
BKN
OVC
Нижняя граница облачности (футы)
800
1400
2900
Явления погоды
-SN
Условия полета
MVFR
FEW – незначительная облачность; BKN – значительная (рассеянная, разорванная) облачность; OVC – сплошная облачность;
-SN – слабый снег;